createdAt,value
2022-09-25T00:00:31.952Z,25.37
2022-09-25T00:01:33.685Z,25.39
2022-09-25T00:02:35.584Z,25.38
2022-09-25T00:03:37.942Z,25.37
2022-09-25T00:04:39.736Z,25.34
2022-09-25T00:05:43.875Z,25.35
2022-09-25T00:06:48.233Z,25.37
2022-09-25T00:07:49.940Z,25.34
2022-09-25T00:08:52.587Z,25.35
2022-09-25T00:09:54.324Z,25.29
2022-09-25T00:10:56.069Z,25.25
2022-09-25T00:11:57.823Z,25.33
2022-09-25T00:13:00.009Z,25.32
2022-09-25T00:14:02.153Z,25.27
2022-09-25T00:15:05.448Z,25.30
2022-09-25T00:16:10.593Z,25.29
2022-09-25T00:17:12.525Z,25.26
2022-09-25T00:18:14.845Z,25.29
2022-09-25T00:19:39.860Z,25.28
2022-09-25T00:20:41.811Z,25.28
2022-09-25T00:21:43.723Z,25.27
2022-09-25T00:22:45.662Z,25.30
2022-09-25T00:23:47.855Z,25.28
2022-09-25T00:24:50.550Z,25.27
2022-09-25T00:25:56.306Z,25.17
2022-09-25T00:26:59.782Z,25.26
2022-09-25T00:28:01.760Z,25.27
2022-09-25T00:29:06.486Z,25.26
2022-09-25T00:30:09.930Z,25.26
2022-09-25T00:31:18.517Z,25.26
2022-09-25T00:32:20.372Z,25.26
2022-09-25T00:33:22.493Z,25.17
2022-09-25T00:34:24.232Z,25.16
2022-09-25T00:35:25.925Z,25.23
2022-09-25T00:36:29.075Z,25.22
2022-09-25T00:37:33.854Z,25.22
2022-09-25T00:38:37.289Z,25.23
2022-09-25T00:39:39.375Z,25.21
2022-09-25T00:40:41.321Z,25.22
2022-09-25T00:41:43.335Z,25.18
2022-09-25T00:42:45.082Z,25.20
2022-09-25T00:43:51.138Z,25.18
2022-09-25T00:45:01.020Z,25.21
2022-09-25T00:46:05.449Z,25.09
2022-09-25T00:47:08.869Z,25.12
2022-09-25T00:48:15.575Z,25.18
2022-09-25T00:49:24.948Z,25.19
2022-09-25T00:50:52.967Z,25.20
2022-09-25T00:52:03.130Z,25.17
2022-09-25T00:53:34.366Z,25.29
2022-09-25T00:54:45.273Z,25.24
2022-09-25T00:55:47.635Z,25.24
2022-09-25T00:56:51.691Z,25.18
2022-09-25T00:57:56.771Z,25.16
2022-09-25T00:58:59.037Z,25.08
2022-09-25T01:00:12.815Z,25.09
2022-09-25T01:01:14.861Z,25.16
2022-09-25T01:02:25.189Z,25.11
2022-09-25T01:03:27.559Z,25.12
2022-09-25T01:04:34.648Z,25.11
2022-09-25T01:05:41.933Z,25.10
2022-09-25T01:06:44.459Z,25.07
2022-09-25T01:07:49.263Z,25.09
2022-09-25T01:08:51.292Z,25.09
2022-09-25T01:09:59.508Z,24.99
2022-09-25T01:11:01.843Z,24.98
2022-09-25T01:12:03.597Z,25.08
2022-09-25T01:13:06.423Z,25.05
2022-09-25T01:14:10.128Z,25.05
2022-09-25T01:15:15.017Z,25.05
2022-09-25T01:16:31.712Z,25.08
2022-09-25T01:17:45.659Z,25.09
2022-09-25T01:18:53.347Z,25.09
2022-09-25T01:20:24.056Z,25.05
2022-09-25T01:21:38.475Z,25.03
2022-09-25T01:23:24.576Z,25.09
2022-09-25T01:24:42.938Z,25.18
2022-09-25T01:26:13.622Z,25.12
2022-09-25T01:27:39.438Z,25.17
2022-09-25T01:28:54.614Z,25.11
2022-09-25T01:30:11.260Z,25.08
2022-09-25T01:31:22.375Z,25.07
2022-09-25T01:32:29.691Z,25.05
2022-09-25T01:33:35.196Z,25.04
2022-09-25T01:34:58.210Z,25.02
2022-09-25T01:36:14.054Z,25.04
2022-09-25T01:37:34.030Z,24.96
2022-09-25T01:38:44.743Z,25.03
2022-09-25T01:40:02.054Z,25.02
2022-09-25T01:41:28.584Z,24.96
2022-09-25T01:42:40.550Z,25.03
2022-09-25T01:44:20.816Z,25.07
2022-09-25T01:45:29.684Z,25.06
2022-09-25T01:46:37.557Z,25.02
2022-09-25T01:47:39.695Z,24.99
2022-09-25T01:48:43.920Z,24.94
2022-09-25T01:49:50.429Z,24.92
2022-09-25T01:51:24.820Z,25.01
2022-09-25T01:52:37.806Z,24.90
2022-09-25T01:53:47.971Z,24.90
2022-09-25T01:54:55.045Z,24.97
2022-09-25T01:56:01.972Z,24.96
2022-09-25T01:57:16.156Z,24.95
2022-09-25T01:58:27.567Z,24.96
2022-09-25T01:59:47.875Z,24.96
2022-09-25T02:00:57.004Z,24.96
2022-09-25T02:02:04.171Z,24.94
2022-09-25T02:03:16.750Z,24.90
2022-09-25T02:04:44.842Z,24.94
2022-09-25T02:05:52.207Z,24.96
2022-09-25T02:06:57.961Z,24.83
2022-09-25T02:08:08.764Z,24.87
2022-09-25T02:09:16.494Z,24.89
2022-09-25T02:10:23.427Z,24.90
2022-09-25T02:11:31.661Z,24.87
2022-09-25T02:12:40.957Z,24.86
2022-09-25T02:13:49.647Z,24.89
2022-09-25T02:14:59.735Z,24.89
2022-09-25T02:16:07.284Z,24.81
2022-09-25T02:17:34.180Z,24.85
2022-09-25T02:18:54.991Z,24.94
2022-09-25T02:20:15.064Z,24.95
2022-09-25T02:21:19.901Z,24.94
2022-09-25T02:22:30.404Z,24.79
2022-09-25T02:23:42.707Z,24.89
2022-09-25T02:24:55.244Z,24.90
2022-09-25T02:26:14.823Z,24.85
2022-09-25T02:27:20.452Z,24.87
2022-09-25T02:28:23.475Z,24.88
2022-09-25T02:29:25.552Z,24.85
2022-09-25T02:30:27.492Z,24.80
2022-09-25T02:31:36.917Z,24.82
2022-09-25T02:32:38.714Z,24.84
2022-09-25T02:33:41.002Z,24.79
2022-09-25T02:34:42.926Z,24.75
2022-09-25T02:35:44.724Z,24.80
2022-09-25T02:36:46.607Z,24.74
2022-09-25T02:37:48.480Z,24.72
2022-09-25T02:38:53.702Z,24.77
2022-09-25T02:40:00.619Z,24.79
2022-09-25T02:41:15.888Z,24.74
2022-09-25T02:42:20.552Z,24.84
2022-09-25T02:43:39.488Z,24.70
2022-09-25T02:45:02.728Z,24.85
2022-09-25T02:46:13.510Z,24.85
2022-09-25T02:47:18.267Z,24.87
2022-09-25T02:48:35.684Z,24.83
2022-09-25T02:49:54.500Z,24.88
2022-09-25T02:51:45.388Z,24.97
2022-09-25T02:53:11.671Z,24.93
2022-09-25T02:54:30.015Z,24.93
2022-09-25T02:55:46.639Z,24.92
2022-09-25T02:56:54.450Z,24.89
2022-09-25T02:58:01.952Z,24.85
2022-09-25T02:59:15.811Z,24.72
2022-09-25T03:00:18.002Z,24.84
2022-09-25T03:01:24.703Z,24.76
2022-09-25T03:02:29.255Z,24.79
2022-09-25T03:03:32.552Z,24.73
2022-09-25T03:04:38.162Z,24.73
2022-09-25T03:05:40.386Z,24.76
2022-09-25T03:06:42.835Z,24.75
2022-09-25T03:08:03.330Z,24.71
2022-09-25T03:09:07.135Z,24.78
2022-09-25T03:10:09.353Z,24.67
2022-09-25T03:11:16.954Z,24.76
2022-09-25T03:12:18.838Z,24.76
2022-09-25T03:13:27.899Z,24.75
2022-09-25T03:14:29.722Z,24.71
2022-09-25T03:15:31.555Z,24.76
2022-09-25T03:16:40.843Z,24.66
2022-09-25T03:17:43.655Z,24.75
2022-09-25T03:18:46.084Z,24.75
2022-09-25T03:19:47.891Z,24.73
2022-09-25T03:20:52.847Z,24.71
2022-09-25T03:21:55.242Z,24.72
2022-09-25T03:22:57.086Z,24.60
2022-09-25T03:23:59.577Z,24.65
2022-09-25T03:25:01.255Z,24.72
2022-09-25T03:26:04.595Z,24.64
2022-09-25T03:27:06.577Z,24.70
2022-09-25T03:28:10.827Z,24.71
2022-09-25T03:29:14.850Z,24.73
2022-09-25T03:30:16.764Z,24.72
2022-09-25T03:31:18.609Z,24.66
2022-09-25T03:32:20.319Z,24.65
2022-09-25T03:33:21.993Z,24.70
2022-09-25T03:34:23.695Z,24.69
2022-09-25T03:35:26.250Z,24.70
2022-09-25T03:36:29.911Z,24.64
2022-09-25T03:37:32.429Z,24.71
2022-09-25T03:38:34.338Z,24.71
2022-09-25T03:39:36.152Z,24.65
2022-09-25T03:40:38.137Z,24.71
2022-09-25T03:41:39.863Z,24.71
2022-09-25T03:42:43.363Z,24.70
2022-09-25T03:43:45.486Z,24.70
2022-09-25T03:44:47.272Z,24.71
2022-09-25T03:45:49.037Z,24.58
2022-09-25T03:46:50.741Z,24.70
2022-09-25T03:47:52.504Z,24.62
2022-09-25T03:48:55.494Z,24.70
2022-09-25T03:49:57.232Z,24.63
2022-09-25T03:50:59.323Z,24.69
2022-09-25T03:52:01.278Z,24.69
2022-09-25T03:53:02.951Z,24.61
2022-09-25T03:54:04.777Z,24.59
2022-09-25T03:55:07.122Z,24.61
2022-09-25T03:56:12.660Z,24.68
2022-09-25T03:57:15.054Z,24.70
2022-09-25T03:58:17.172Z,24.70
2022-09-25T03:59:18.921Z,24.62
2022-09-25T04:00:20.659Z,24.69
2022-09-25T04:01:24.525Z,24.69
2022-09-25T04:02:26.342Z,24.69
2022-09-25T04:03:31.628Z,24.69
2022-09-25T04:04:33.367Z,24.65
2022-09-25T04:05:36.195Z,24.66
2022-09-25T04:06:38.006Z,24.70
2022-09-25T04:07:39.712Z,24.69
2022-09-25T04:08:41.972Z,24.68
2022-09-25T04:09:43.787Z,24.69
2022-09-25T04:10:45.472Z,24.62
2022-09-25T04:11:47.180Z,24.59
2022-09-25T04:12:48.924Z,24.67
2022-09-25T04:13:52.783Z,24.68
2022-09-25T04:14:55.195Z,24.68
2022-09-25T04:16:01.749Z,24.67
2022-09-25T04:17:03.616Z,24.68
2022-09-25T04:18:06.359Z,24.65
2022-09-25T04:19:08.253Z,24.68
2022-09-25T04:20:10.024Z,24.67
2022-09-25T04:21:13.876Z,24.66
2022-09-25T04:22:15.547Z,24.65
2022-09-25T04:23:17.856Z,24.66
2022-09-25T04:24:38.656Z,24.66
2022-09-25T04:25:40.355Z,24.71
2022-09-25T04:26:42.107Z,24.55
2022-09-25T04:27:46.406Z,24.63
2022-09-25T04:28:48.552Z,24.68
2022-09-25T04:29:50.625Z,24.62
2022-09-25T04:30:52.680Z,24.67
2022-09-25T04:32:13.123Z,24.58
2022-09-25T04:33:33.976Z,24.70
2022-09-25T04:34:35.758Z,24.73
2022-09-25T04:35:38.182Z,24.69
2022-09-25T04:36:39.856Z,24.68
2022-09-25T04:37:41.763Z,24.65
2022-09-25T04:38:44.233Z,24.53
2022-09-25T04:39:46.006Z,24.65
2022-09-25T04:40:47.939Z,24.64
2022-09-25T04:41:49.636Z,24.64
2022-09-25T04:43:02.331Z,24.55
2022-09-25T04:44:05.419Z,24.59
2022-09-25T04:45:07.575Z,24.60
2022-09-25T04:46:15.435Z,24.64
2022-09-25T04:47:25.904Z,24.65
2022-09-25T04:48:27.628Z,24.67
2022-09-25T04:49:29.416Z,24.65
2022-09-25T04:50:31.707Z,24.56
2022-09-25T04:51:36.555Z,24.59
2022-09-25T04:52:38.726Z,24.58
2022-09-25T04:53:40.722Z,24.49
2022-09-25T04:54:43.378Z,24.60
2022-09-25T04:55:46.395Z,24.63
2022-09-25T04:56:48.131Z,24.63
2022-09-25T04:57:58.757Z,24.56
2022-09-25T04:59:01.171Z,24.62
2022-09-25T05:00:04.225Z,24.63
2022-09-25T05:01:09.075Z,24.62
2022-09-25T05:02:12.028Z,24.63
2022-09-25T05:03:13.909Z,24.63
2022-09-25T05:04:16.404Z,24.63
2022-09-25T05:05:19.278Z,24.63
2022-09-25T05:06:21.523Z,24.59
2022-09-25T05:07:23.294Z,24.61
2022-09-25T05:08:25.030Z,24.61
2022-09-25T05:09:26.891Z,24.61
2022-09-25T05:10:31.198Z,24.59
2022-09-25T05:11:32.946Z,24.57
2022-09-25T05:12:35.403Z,24.60
2022-09-25T05:13:37.139Z,24.61
2022-09-25T05:14:41.221Z,24.56
2022-09-25T05:15:43.106Z,24.58
2022-09-25T05:16:46.403Z,24.59
2022-09-25T05:17:48.216Z,24.59
2022-09-25T05:18:50.291Z,24.52
2022-09-25T05:19:52.068Z,24.50
2022-09-25T05:20:54.390Z,24.53
2022-09-25T05:21:56.280Z,24.59
2022-09-25T05:22:58.523Z,24.59
2022-09-25T05:24:00.242Z,24.59
2022-09-25T05:25:01.980Z,24.57
2022-09-25T05:26:03.921Z,24.58
2022-09-25T05:27:05.661Z,24.59
2022-09-25T05:28:07.593Z,24.50
2022-09-25T05:29:10.191Z,24.59
2022-09-25T05:30:12.287Z,24.59
2022-09-25T05:31:14.012Z,24.59
2022-09-25T05:32:17.300Z,24.59
2022-09-25T05:33:21.727Z,24.59
2022-09-25T05:34:23.611Z,24.59
2022-09-25T05:35:27.891Z,24.58
2022-09-25T05:36:29.680Z,24.54
2022-09-25T05:37:31.449Z,24.58
2022-09-25T05:38:35.253Z,24.46
2022-09-25T05:39:36.901Z,24.59
2022-09-25T05:40:39.443Z,24.43
2022-09-25T05:41:41.201Z,24.51
2022-09-25T05:42:44.422Z,24.58
2022-09-25T05:43:50.263Z,24.52
2022-09-25T05:44:52.003Z,24.59
2022-09-25T05:45:55.598Z,24.47
2022-09-25T05:46:57.442Z,24.59
2022-09-25T05:48:05.033Z,24.58
2022-09-25T05:49:06.775Z,24.59
2022-09-25T05:50:10.955Z,24.58
2022-09-25T05:51:12.869Z,24.57
2022-09-25T05:52:14.764Z,24.50
2022-09-25T05:53:16.495Z,24.47
2022-09-25T05:54:18.255Z,24.57
2022-09-25T05:55:20.023Z,24.56
2022-09-25T05:56:24.869Z,24.56
2022-09-25T05:57:27.943Z,24.56
2022-09-25T05:58:31.370Z,24.56
2022-09-25T05:59:34.954Z,24.58
2022-09-25T06:00:36.693Z,24.56
2022-09-25T06:01:38.543Z,24.56
2022-09-25T06:02:40.480Z,24.56
2022-09-25T06:03:42.555Z,24.53
2022-09-25T06:04:44.352Z,24.49
2022-09-25T06:05:46.398Z,24.55
2022-09-25T06:06:48.173Z,24.53
2022-09-25T06:07:54.712Z,24.49
2022-09-25T06:08:56.507Z,24.53
2022-09-25T06:09:58.240Z,24.47
2022-09-25T06:11:01.536Z,24.57
2022-09-25T06:12:03.976Z,24.59
2022-09-25T06:13:05.872Z,24.59
2022-09-25T06:14:07.761Z,24.54
2022-09-25T06:15:09.896Z,24.63
2022-09-25T06:16:18.653Z,24.56
2022-09-25T06:17:20.441Z,24.70
2022-09-25T06:18:24.085Z,24.67
2022-09-25T06:19:25.867Z,24.74
2022-09-25T06:20:27.742Z,24.78
2022-09-25T06:21:29.982Z,24.80
2022-09-25T06:22:32.316Z,24.69
2022-09-25T06:23:34.077Z,24.86
2022-09-25T06:24:35.847Z,24.90
2022-09-25T06:25:37.761Z,24.88
2022-09-25T06:26:40.744Z,24.89
2022-09-25T06:27:42.377Z,24.93
2022-09-25T06:28:44.164Z,25.00
2022-09-25T06:29:45.982Z,25.06
2022-09-25T06:30:47.934Z,25.08
2022-09-25T06:31:50.495Z,25.11
2022-09-25T06:33:00.009Z,25.10
2022-09-25T06:34:02.246Z,25.18
2022-09-25T06:35:04.954Z,25.16
2022-09-25T06:36:06.729Z,25.17
2022-09-25T06:37:08.933Z,25.29
2022-09-25T06:38:11.589Z,25.33
2022-09-25T06:39:13.332Z,25.37
2022-09-25T06:40:15.355Z,25.39
2022-09-25T06:41:17.071Z,25.39
2022-09-25T06:42:18.878Z,25.43
2022-09-25T06:43:20.539Z,25.39
2022-09-25T06:44:23.001Z,25.49
2022-09-25T06:45:26.821Z,25.51
2022-09-25T06:46:28.528Z,25.51
2022-09-25T06:47:30.283Z,25.50
2022-09-25T06:48:32.094Z,25.50
2022-09-25T06:49:33.988Z,25.60
2022-09-25T06:50:45.511Z,25.63
2022-09-25T06:51:47.822Z,25.67
2022-09-25T06:52:49.545Z,25.67
2022-09-25T06:53:54.777Z,25.59
2022-09-25T06:54:56.493Z,25.71
2022-09-25T06:56:00.045Z,25.72
2022-09-25T06:57:02.087Z,25.71
2022-09-25T06:58:06.015Z,25.73
2022-09-25T06:59:09.287Z,25.76
2022-09-25T07:00:11.682Z,25.78
2022-09-25T07:01:14.092Z,25.79
2022-09-25T07:02:34.284Z,25.77
2022-09-25T07:03:45.508Z,25.79
2022-09-25T07:04:51.164Z,25.87
2022-09-25T07:05:53.090Z,25.87
2022-09-25T07:06:58.589Z,25.81
2022-09-25T07:08:00.543Z,25.86
2022-09-25T07:09:04.028Z,25.86
2022-09-25T07:10:06.308Z,25.87
2022-09-25T07:11:08.137Z,25.82
2022-09-25T07:12:11.335Z,25.87
2022-09-25T07:13:13.127Z,25.88
2022-09-25T07:14:14.867Z,25.81
2022-09-25T07:15:16.992Z,25.89
2022-09-25T07:16:21.033Z,25.88
2022-09-25T07:17:22.868Z,25.84
2022-09-25T07:18:26.076Z,25.90
2022-09-25T07:19:28.061Z,25.92
2022-09-25T07:20:30.450Z,25.91
2022-09-25T07:21:32.450Z,25.91
2022-09-25T07:22:34.324Z,25.91
2022-09-25T07:23:36.573Z,25.92
2022-09-25T07:24:39.025Z,25.82
2022-09-25T07:25:41.107Z,25.87
2022-09-25T07:26:43.435Z,25.92
2022-09-25T07:27:45.823Z,25.94
2022-09-25T07:28:48.161Z,25.90
2022-09-25T07:29:49.893Z,25.94
2022-09-25T07:30:52.611Z,25.95
2022-09-25T07:31:54.398Z,25.90
2022-09-25T07:33:00.054Z,25.95
2022-09-25T07:34:08.866Z,25.91
2022-09-25T07:35:11.082Z,25.99
2022-09-25T07:36:13.929Z,25.95
2022-09-25T07:37:16.312Z,25.99
2022-09-25T07:38:18.791Z,25.99
2022-09-25T07:39:20.485Z,25.92
2022-09-25T07:40:22.271Z,26.02
2022-09-25T07:41:24.308Z,25.99
2022-09-25T07:42:26.222Z,26.04
2022-09-25T07:43:27.942Z,26.03
2022-09-25T07:44:36.280Z,26.05
2022-09-25T07:45:39.534Z,26.07
2022-09-25T07:46:44.510Z,26.05
2022-09-25T07:47:46.520Z,26.09
2022-09-25T07:48:49.657Z,26.09
2022-09-25T07:49:51.348Z,26.09
2022-09-25T07:50:54.403Z,26.11
2022-09-25T07:51:56.267Z,26.11
2022-09-25T07:52:58.758Z,26.08
2022-09-25T07:54:01.257Z,26.09
2022-09-25T07:55:03.102Z,26.13
2022-09-25T07:56:07.123Z,26.13
2022-09-25T07:57:09.435Z,26.09
2022-09-25T07:58:12.041Z,26.15
2022-09-25T07:59:13.821Z,26.11
2022-09-25T08:00:15.695Z,26.09
2022-09-25T08:01:17.555Z,26.11
2022-09-25T08:02:19.395Z,26.16
2022-09-25T08:03:21.936Z,26.17
2022-09-25T08:04:23.768Z,26.16
2022-09-25T08:05:26.898Z,26.17
2022-09-25T08:06:28.713Z,26.19
2022-09-25T08:07:30.520Z,26.18
2022-09-25T08:08:35.008Z,26.18
2022-09-25T08:09:36.799Z,26.21
2022-09-25T08:10:38.563Z,26.20
2022-09-25T08:11:40.324Z,26.13
2022-09-25T08:12:43.356Z,26.19
2022-09-25T08:13:45.934Z,26.14
2022-09-25T08:14:47.696Z,26.20
2022-09-25T08:15:49.459Z,26.09
2022-09-25T08:16:55.915Z,26.20
2022-09-25T08:17:57.774Z,26.22
2022-09-25T08:18:59.533Z,26.22
2022-09-25T08:20:01.399Z,26.21
2022-09-25T08:21:04.933Z,26.17
2022-09-25T08:22:06.822Z,26.18
2022-09-25T08:23:08.569Z,26.22
2022-09-25T08:24:10.958Z,26.20
2022-09-25T08:25:13.153Z,26.23
2022-09-25T08:26:15.846Z,26.14
2022-09-25T08:27:18.210Z,26.24
2022-09-25T08:28:19.880Z,26.24
2022-09-25T08:29:21.635Z,26.23
2022-09-25T08:30:23.433Z,26.23
2022-09-25T08:31:25.249Z,26.25
2022-09-25T08:32:27.026Z,26.25
2022-09-25T08:33:28.833Z,26.24
2022-09-25T08:34:46.954Z,26.26
2022-09-25T08:36:00.223Z,26.30
2022-09-25T08:37:01.931Z,26.31
2022-09-25T08:38:04.723Z,26.24
2022-09-25T08:39:06.491Z,26.27
2022-09-25T08:40:19.555Z,26.22
2022-09-25T08:41:33.567Z,26.31
2022-09-25T08:42:37.741Z,26.28
2022-09-25T08:43:57.622Z,26.33
2022-09-25T08:45:22.880Z,26.27
2022-09-25T08:46:59.293Z,26.29
2022-09-25T08:48:19.479Z,26.37
2022-09-25T08:49:26.381Z,26.36
2022-09-25T08:50:29.761Z,26.32
2022-09-25T08:51:38.959Z,26.30
2022-09-25T08:52:46.079Z,26.24
2022-09-25T08:53:48.380Z,26.30
2022-09-25T08:54:51.111Z,26.27
2022-09-25T08:56:12.141Z,26.26
2022-09-25T08:57:24.782Z,26.23
2022-09-25T08:58:33.915Z,26.30
2022-09-25T08:59:40.612Z,26.30
2022-09-25T09:00:43.860Z,26.23
2022-09-25T09:01:53.445Z,26.28
2022-09-25T09:02:58.245Z,26.27
2022-09-25T09:04:08.105Z,26.29
2022-09-25T09:05:22.429Z,26.28
2022-09-25T09:06:27.122Z,26.30
2022-09-25T09:07:39.207Z,26.30
2022-09-25T09:08:43.946Z,26.29
2022-09-25T09:09:55.118Z,26.17
2022-09-25T09:11:10.013Z,26.30
2022-09-25T09:12:23.691Z,26.31
2022-09-25T09:13:34.715Z,26.22
2022-09-25T09:14:44.975Z,26.24
2022-09-25T09:16:02.084Z,26.34
2022-09-25T09:17:18.178Z,26.27
2022-09-25T09:18:26.178Z,26.34
2022-09-25T09:19:28.029Z,26.34
2022-09-25T09:20:41.359Z,26.30
2022-09-25T09:22:00.948Z,26.34
2022-09-25T09:23:03.620Z,26.36
2022-09-25T09:24:16.122Z,26.22
2022-09-25T09:25:32.364Z,26.36
2022-09-25T09:26:34.060Z,26.34
2022-09-25T09:28:04.923Z,26.38
2022-09-25T09:29:53.672Z,26.41
2022-09-25T09:31:12.764Z,26.48
2022-09-25T09:32:17.574Z,26.45
2022-09-25T09:33:39.163Z,26.45
2022-09-25T09:35:06.273Z,26.45
2022-09-25T09:36:16.050Z,26.47
2022-09-25T09:37:41.310Z,26.45
2022-09-25T09:38:48.429Z,26.48
2022-09-25T09:40:29.740Z,26.47
2022-09-25T09:41:44.135Z,26.50
2022-09-25T09:43:13.305Z,26.52
2022-09-25T09:44:41.090Z,26.50
2022-09-25T09:46:25.852Z,26.57
2022-09-25T09:47:42.682Z,26.57
2022-09-25T09:49:10.346Z,26.51
2022-09-25T09:50:20.782Z,26.52
2022-09-25T09:51:32.364Z,26.45
2022-09-25T09:52:39.416Z,26.47
2022-09-25T09:53:46.560Z,26.44
2022-09-25T09:54:54.298Z,26.45
2022-09-25T09:56:07.391Z,26.36
2022-09-25T09:57:20.695Z,26.45
2022-09-25T09:58:30.293Z,26.37
2022-09-25T09:59:46.386Z,26.39
2022-09-25T10:00:52.502Z,26.48
2022-09-25T10:02:36.031Z,26.52
2022-09-25T10:03:39.410Z,26.49
2022-09-25T10:04:42.476Z,26.50
2022-09-25T10:05:48.679Z,26.48
2022-09-25T10:07:04.500Z,26.36
2022-09-25T10:08:06.411Z,26.50
2022-09-25T10:09:14.165Z,26.46
2022-09-25T10:10:17.512Z,26.46
2022-09-25T10:11:20.870Z,26.44
2022-09-25T10:12:29.114Z,26.46
2022-09-25T10:13:36.455Z,26.45
2022-09-25T10:14:43.102Z,26.45
2022-09-25T10:15:56.572Z,26.46
2022-09-25T10:16:58.792Z,26.48
2022-09-25T10:18:03.226Z,26.46
2022-09-25T10:19:20.629Z,26.47
2022-09-25T10:20:24.241Z,26.49
2022-09-25T10:21:30.487Z,26.47
2022-09-25T10:22:40.796Z,26.48
2022-09-25T10:23:52.710Z,26.48
2022-09-25T10:25:02.367Z,26.46
2022-09-25T10:26:23.127Z,26.49
2022-09-25T10:27:24.774Z,26.52
2022-09-25T10:28:36.027Z,26.51
2022-09-25T10:29:37.765Z,26.48
2022-09-25T10:30:45.950Z,26.47
2022-09-25T10:31:48.661Z,26.49
2022-09-25T10:33:15.555Z,26.52
2022-09-25T10:34:22.537Z,26.50
2022-09-25T10:35:28.980Z,26.51
2022-09-25T10:36:34.092Z,26.50
2022-09-25T10:37:35.983Z,26.50
2022-09-25T10:38:44.208Z,26.42
2022-09-25T10:40:01.893Z,26.53
2022-09-25T10:41:08.391Z,26.52
2022-09-25T10:42:41.162Z,26.56
2022-09-25T10:43:56.913Z,26.60
2022-09-25T10:44:58.655Z,26.57
2022-09-25T10:46:11.864Z,26.55
2022-09-25T10:47:38.198Z,26.56
2022-09-25T10:48:59.368Z,26.55
2022-09-25T10:50:12.535Z,26.61
2022-09-25T10:51:17.437Z,26.50
2022-09-25T10:52:22.297Z,26.59
2022-09-25T10:53:29.083Z,26.56
2022-09-25T10:54:30.929Z,26.56
2022-09-25T10:55:36.616Z,26.54
2022-09-25T10:56:39.594Z,26.50
2022-09-25T10:57:42.698Z,26.55
2022-09-25T10:58:48.084Z,26.56
2022-09-25T10:59:51.935Z,26.57
2022-09-25T11:00:57.930Z,26.57
2022-09-25T11:01:59.760Z,26.54
2022-09-25T11:03:05.747Z,26.48
2022-09-25T11:04:16.498Z,26.59
2022-09-25T11:05:22.043Z,26.60
2022-09-25T11:06:33.402Z,26.55
2022-09-25T11:07:35.175Z,26.58
2022-09-25T11:08:40.302Z,26.60
2022-09-25T11:09:44.990Z,26.61
2022-09-25T11:10:56.507Z,26.55
2022-09-25T11:12:26.431Z,26.70
2022-09-25T11:13:45.975Z,26.72
2022-09-25T11:14:59.013Z,26.58
2022-09-25T11:16:02.112Z,26.63
2022-09-25T11:17:06.861Z,26.67
2022-09-25T11:18:40.463Z,26.69
2022-09-25T11:19:42.240Z,26.72
2022-09-25T11:20:44.467Z,26.64
2022-09-25T11:21:57.079Z,26.66
2022-09-25T11:23:19.033Z,26.68
2022-09-25T11:24:44.002Z,26.75
2022-09-25T11:25:53.829Z,26.75
2022-09-25T11:27:14.496Z,26.71
2022-09-25T11:28:44.488Z,26.72
2022-09-25T11:29:54.637Z,26.59
2022-09-25T11:31:11.642Z,26.62
2022-09-25T11:32:24.437Z,26.75
2022-09-25T11:33:55.885Z,26.69
2022-09-25T11:35:27.998Z,26.78
2022-09-25T11:36:39.082Z,26.78
2022-09-25T11:37:54.820Z,26.73
2022-09-25T11:39:27.839Z,26.68
2022-09-25T11:40:57.479Z,26.75
2022-09-25T11:42:40.279Z,26.85
2022-09-25T11:43:59.611Z,26.80
2022-09-25T11:45:18.208Z,26.77
2022-09-25T11:46:34.005Z,26.67
2022-09-25T11:47:46.125Z,26.64
2022-09-25T11:49:17.288Z,26.76
2022-09-25T11:50:22.720Z,26.75
2022-09-25T11:51:41.020Z,26.71
2022-09-25T11:53:02.070Z,26.69
2022-09-25T11:54:32.761Z,26.75
2022-09-25T11:55:43.471Z,26.76
2022-09-25T11:56:48.224Z,26.73
2022-09-25T11:58:11.214Z,26.74
2022-09-25T11:59:13.623Z,26.74
2022-09-25T12:00:30.194Z,26.69
2022-09-25T12:01:36.858Z,26.62
2022-09-25T12:03:09.455Z,26.75
2022-09-25T12:04:55.848Z,26.76
2022-09-25T12:06:27.049Z,26.79
2022-09-25T12:07:28.718Z,26.81
2022-09-25T12:08:44.054Z,26.75
2022-09-25T12:10:04.235Z,26.72
2022-09-25T12:11:30.222Z,26.78
2022-09-25T12:12:59.402Z,26.79
2022-09-25T12:14:16.744Z,26.80
2022-09-25T12:15:51.205Z,26.66
2022-09-25T12:16:59.135Z,26.78
2022-09-25T12:18:10.797Z,26.75
2022-09-25T12:19:24.555Z,26.69
2022-09-25T12:20:50.217Z,26.73
2022-09-25T12:22:23.893Z,26.80
2022-09-25T12:23:43.561Z,26.76
2022-09-25T12:25:01.534Z,26.73
2022-09-25T12:26:09.000Z,26.75
2022-09-25T12:27:42.124Z,26.78
2022-09-25T12:29:26.089Z,26.81
2022-09-25T12:31:04.740Z,26.73
2022-09-25T12:32:20.585Z,26.81
2022-09-25T12:33:43.954Z,26.80
2022-09-25T12:35:13.130Z,26.77
2022-09-25T12:36:50.523Z,26.81
2022-09-25T12:37:57.212Z,26.79
2022-09-25T12:39:09.372Z,26.74
2022-09-25T12:40:26.917Z,26.75
2022-09-25T12:41:47.296Z,26.72
2022-09-25T12:42:52.034Z,26.73
2022-09-25T12:44:06.340Z,26.72
2022-09-25T12:45:32.288Z,26.73
2022-09-25T12:46:51.647Z,26.77
2022-09-25T12:47:53.334Z,26.75
2022-09-25T12:49:13.804Z,26.70
2022-09-25T12:50:29.401Z,26.66
2022-09-25T12:51:40.581Z,26.73
2022-09-25T12:52:53.715Z,26.71
2022-09-25T12:54:01.497Z,26.66
2022-09-25T12:55:13.743Z,26.67
2022-09-25T12:56:27.708Z,26.71
2022-09-25T12:58:07.804Z,26.54
2022-09-25T12:59:27.467Z,26.79
2022-09-25T13:00:32.970Z,26.76
2022-09-25T13:01:57.786Z,26.78
2022-09-25T13:03:12.196Z,26.77
2022-09-25T13:04:23.952Z,26.77
2022-09-25T13:05:45.436Z,26.80
2022-09-25T13:07:06.719Z,26.81
2022-09-25T13:08:20.384Z,26.70
2022-09-25T13:09:29.641Z,26.80
2022-09-25T13:10:38.489Z,26.77
2022-09-25T13:11:51.001Z,26.70
2022-09-25T13:12:56.494Z,26.76
2022-09-25T13:13:59.533Z,26.72
2022-09-25T13:15:14.139Z,26.76
2022-09-25T13:16:16.599Z,26.77
2022-09-25T13:17:18.786Z,26.68
2022-09-25T13:18:23.138Z,26.76
2022-09-25T13:19:27.735Z,26.71
2022-09-25T13:20:37.076Z,26.77
2022-09-25T13:21:43.096Z,26.79
2022-09-25T13:22:44.816Z,26.75
2022-09-25T13:23:50.388Z,26.80
2022-09-25T13:25:14.156Z,26.80
2022-09-25T13:26:19.134Z,26.73
2022-09-25T13:27:23.569Z,26.79
2022-09-25T13:28:29.287Z,26.76
2022-09-25T13:29:39.108Z,26.75
2022-09-25T13:30:59.640Z,26.84
2022-09-25T13:32:23.309Z,26.86
2022-09-25T13:33:25.622Z,26.86
2022-09-25T13:34:27.410Z,26.84
2022-09-25T13:35:32.078Z,26.84
2022-09-25T13:36:46.848Z,26.85
2022-09-25T13:37:51.519Z,26.86
2022-09-25T13:39:16.648Z,26.84
2022-09-25T13:40:40.053Z,26.89
2022-09-25T13:42:12.621Z,26.97
2022-09-25T13:43:30.534Z,26.95
2022-09-25T13:44:42.125Z,26.94
2022-09-25T13:45:44.157Z,26.90
2022-09-25T13:46:45.996Z,26.89
2022-09-25T13:48:12.678Z,26.87
2022-09-25T13:49:34.342Z,26.95
2022-09-25T13:50:41.537Z,26.92
2022-09-25T13:51:45.104Z,26.83
2022-09-25T13:52:46.794Z,26.87
2022-09-25T13:54:04.533Z,26.85
2022-09-25T13:55:21.415Z,26.88
2022-09-25T13:56:29.609Z,26.87
2022-09-25T13:57:58.514Z,26.92
2022-09-25T13:59:21.000Z,26.92
2022-09-25T14:00:23.489Z,26.89
2022-09-25T14:01:40.246Z,26.92
2022-09-25T14:02:46.443Z,26.90
2022-09-25T14:03:50.124Z,26.81
2022-09-25T14:04:52.082Z,26.81
2022-09-25T14:05:53.865Z,26.85
2022-09-25T14:07:04.808Z,26.84
2022-09-25T14:08:12.710Z,26.85
2022-09-25T14:09:19.867Z,26.86
2022-09-25T14:10:23.062Z,26.86
2022-09-25T14:11:31.584Z,26.85
2022-09-25T14:12:42.756Z,26.85
2022-09-25T14:13:46.756Z,26.75
2022-09-25T14:14:56.012Z,26.85
2022-09-25T14:16:01.893Z,26.85
2022-09-25T14:17:04.431Z,26.83
2022-09-25T14:18:37.803Z,26.88
2022-09-25T14:19:43.607Z,26.81
2022-09-25T14:20:48.961Z,26.83
2022-09-25T14:21:52.286Z,26.81
2022-09-25T14:22:56.368Z,26.75
2022-09-25T14:24:12.584Z,26.87
2022-09-25T14:25:38.431Z,26.92
2022-09-25T14:26:45.399Z,26.90
2022-09-25T14:27:53.019Z,26.90
2022-09-25T14:28:57.196Z,26.81
2022-09-25T14:30:14.032Z,26.89
2022-09-25T14:31:34.982Z,26.94
2022-09-25T14:32:56.281Z,26.90
2022-09-25T14:34:28.302Z,26.98
2022-09-25T14:35:33.187Z,26.97
2022-09-25T14:36:40.595Z,26.94
2022-09-25T14:38:16.390Z,26.97
2022-09-25T14:39:30.282Z,27.00
2022-09-25T14:40:38.337Z,26.91
2022-09-25T14:41:53.109Z,26.95